METAR Data
IDs: Format: Raw Decoded Include TAF

Data at: 2330 UTC 01 Mar 2021

METAR for:KOUN (Norman/Univ Oklahoma, OK, US)
Text:KOUN 012247Z 35015KT 10SM CLR 14/M07 A3029
Temperature: 14.0°C ( 57°F)
Dewpoint: -7.0°C ( 19°F) [RH = 23%]
Pressure (altimeter):30.29 inches Hg (1025.8 mb)
Winds:from the N (350 degrees) at 17 MPH (15 knots; 7.7 m/s)
Visibility:10 or more sm (16+ km)
Ceiling:at least 12,000 feet AGL
Clouds:sky clear below 12,000 feet AGL
Text:KOUN 012145Z 35009G17KT 10SM CLR 14/M08 A3030
Temperature: 14.0°C ( 57°F)
Dewpoint: -8.0°C ( 18°F) [RH = 21%]
Pressure (altimeter):30.30 inches Hg (1026.2 mb)
Winds:from the N (350 degrees) at 10 MPH (9 knots; 4.6 m/s) gusting to 20 MPH (17 knots; 8.7 m/s)
Visibility:10 or more sm (16+ km)
Ceiling:at least 12,000 feet AGL
Clouds:sky clear below 12,000 feet AGL
Text:KOUN 012045Z 01010G15KT 10SM CLR 14/M07 A3030
Temperature: 14.0°C ( 57°F)
Dewpoint: -7.0°C ( 19°F) [RH = 23%]
Pressure (altimeter):30.30 inches Hg (1026.2 mb)
Winds:from the N (10 degrees) at 12 MPH (10 knots; 5.1 m/s) gusting to 17 MPH (15 knots; 7.7 m/s)
Visibility:10 or more sm (16+ km)
Ceiling:at least 12,000 feet AGL
Clouds:sky clear below 12,000 feet AGL
Text:KOUN 011947Z 36009G20KT 10SM CLR 13/M07 A3031
Temperature: 13.0°C ( 55°F)
Dewpoint: -7.0°C ( 19°F) [RH = 24%]
Pressure (altimeter):30.31 inches Hg (1026.5 mb)
Winds:from the N (360 degrees) at 10 MPH (9 knots; 4.6 m/s) gusting to 23 MPH (20 knots; 10.3 m/s)
Visibility:10 or more sm (16+ km)
Ceiling:at least 12,000 feet AGL
Clouds:sky clear below 12,000 feet AGL
Text:KOUN 011847Z 03012G16KT 10SM CLR 13/M06 A3033
Temperature: 13.0°C ( 55°F)
Dewpoint: -6.0°C ( 21°F) [RH = 26%]
Pressure (altimeter):30.33 inches Hg (1027.2 mb)
Winds:from the NNE (30 degrees) at 14 MPH (12 knots; 6.2 m/s) gusting to 18 MPH (16 knots; 8.2 m/s)
Visibility:10 or more sm (16+ km)
Ceiling:at least 12,000 feet AGL
Clouds:sky clear below 12,000 feet AGL
Text:KOUN 011747Z 02013KT 10SM CLR 11/M04 A3034
Temperature: 11.0°C ( 52°F)
Dewpoint: -4.0°C ( 25°F) [RH = 35%]
Pressure (altimeter):30.34 inches Hg (1027.5 mb)
Winds:from the NNE (20 degrees) at 15 MPH (13 knots; 6.7 m/s)
Visibility:10 or more sm (16+ km)
Ceiling:at least 12,000 feet AGL
Clouds:sky clear below 12,000 feet AGL
Text:KOUN 011647Z 36009KT 10SM CLR 09/M03 A3034
Temperature: 9.0°C ( 48°F)
Dewpoint: -3.0°C ( 27°F) [RH = 43%]
Pressure (altimeter):30.34 inches Hg (1027.5 mb)
Winds:from the N (360 degrees) at 10 MPH (9 knots; 4.6 m/s)
Visibility:10 or more sm (16+ km)
Ceiling:at least 12,000 feet AGL
Clouds:sky clear below 12,000 feet AGL
Text:KOUN 011548Z 01009KT 10SM CLR 07/M03 A3034
Temperature: 7.0°C ( 45°F)
Dewpoint: -3.0°C ( 27°F) [RH = 49%]
Pressure (altimeter):30.34 inches Hg (1027.5 mb)
Winds:from the N (10 degrees) at 10 MPH (9 knots; 4.6 m/s)
Visibility:10 or more sm (16+ km)
Ceiling:at least 12,000 feet AGL
Clouds:sky clear below 12,000 feet AGL
Text:KOUN 011448Z 02011KT 10SM CLR 04/M02 A3033
Temperature: 4.0°C ( 39°F)
Dewpoint: -2.0°C ( 28°F) [RH = 65%]
Pressure (altimeter):30.33 inches Hg (1027.2 mb)
Winds:from the NNE (20 degrees) at 13 MPH (11 knots; 5.7 m/s)
Visibility:10 or more sm (16+ km)
Ceiling:at least 12,000 feet AGL
Clouds:sky clear below 12,000 feet AGL
Text:KOUN 011347Z 36008KT 10SM CLR 01/M02 A3030
Temperature: 1.0°C ( 34°F)
Dewpoint: -2.0°C ( 28°F) [RH = 80%]
Pressure (altimeter):30.30 inches Hg (1026.2 mb)
Winds:from the N (360 degrees) at 9 MPH (8 knots; 4.1 m/s)
Visibility:10 or more sm (16+ km)
Ceiling:at least 12,000 feet AGL
Clouds:sky clear below 12,000 feet AGL
Text:KOUN 011335Z AUTO 02008KT 10SM CLR 01/M01 A3030 RMK AO2 T00131015
Temperature: 1.3°C ( 34°F)
Dewpoint: -1.5°C ( 29°F) [RH = 82%]
Pressure (altimeter):30.30 inches Hg (1026.2 mb)
Winds:from the NNE (20 degrees) at 9 MPH (8 knots; 4.1 m/s)
Visibility:10 or more sm (16+ km)
Ceiling:at least 12,000 feet AGL
Clouds:sky clear below 12,000 feet AGL
QC Flag:automated observation with no human augmentation
Text:KOUN 011315Z AUTO 02007KT 10SM CLR 01/M02 A3030 RMK AO2 T00121015
Temperature: 1.2°C ( 34°F)
Dewpoint: -1.5°C ( 29°F) [RH = 82%]
Pressure (altimeter):30.30 inches Hg (1026.2 mb)
Winds:from the NNE (20 degrees) at 8 MPH (7 knots; 3.6 m/s)
Visibility:10 or more sm (16+ km)
Ceiling:at least 12,000 feet AGL
Clouds:sky clear below 12,000 feet AGL
QC Flag:automated observation with no human augmentation
Text:KOUN 011255Z AUTO 02008KT 10SM CLR 01/M01 A3029 RMK AO2 T00151015
Temperature: 1.5°C ( 35°F)
Dewpoint: -1.5°C ( 29°F) [RH = 80%]
Pressure (altimeter):30.29 inches Hg (1025.8 mb)
Winds:from the NNE (20 degrees) at 9 MPH (8 knots; 4.1 m/s)
Visibility:10 or more sm (16+ km)
Ceiling:at least 12,000 feet AGL
Clouds:sky clear below 12,000 feet AGL
QC Flag:automated observation with no human augmentation
Text:KOUN 011235Z AUTO 02007KT 10SM CLR 01/M02 A3029 RMK AO2 T00111017
Temperature: 1.1°C ( 34°F)
Dewpoint: -1.7°C ( 29°F) [RH = 82%]
Pressure (altimeter):30.29 inches Hg (1025.8 mb)
Winds:from the NNE (20 degrees) at 8 MPH (7 knots; 3.6 m/s)
Visibility:10 or more sm (16+ km)
Ceiling:at least 12,000 feet AGL
Clouds:sky clear below 12,000 feet AGL
QC Flag:automated observation with no human augmentation
Text:KOUN 011215Z AUTO 02008KT 10SM CLR 02/M01 A3030 RMK AO2 T00231014
Temperature: 2.3°C ( 36°F)
Dewpoint: -1.4°C ( 29°F) [RH = 76%]
Pressure (altimeter):30.30 inches Hg (1026.2 mb)
Winds:from the NNE (20 degrees) at 9 MPH (8 knots; 4.1 m/s)
Visibility:10 or more sm (16+ km)
Ceiling:at least 12,000 feet AGL
Clouds:sky clear below 12,000 feet AGL
QC Flag:automated observation with no human augmentation
Text:KOUN 011155Z AUTO 02008KT 10SM CLR 03/M01 A3029 RMK AO2 T00291011 10062 20028
Temperature: 2.9°C ( 37°F)
Dewpoint: -1.1°C ( 30°F) [RH = 75%]
Pressure (altimeter):30.29 inches Hg (1025.8 mb)
Winds:from the NNE (20 degrees) at 9 MPH (8 knots; 4.1 m/s)
Visibility:10 or more sm (16+ km)
Ceiling:at least 12,000 feet AGL
Clouds:sky clear below 12,000 feet AGL
QC Flag:automated observation with no human augmentation
Text:KOUN 011135Z AUTO 01008KT 10SM CLR 03/M01 A3027 RMK AO2 T00291011
Temperature: 2.9°C ( 37°F)
Dewpoint: -1.1°C ( 30°F) [RH = 75%]
Pressure (altimeter):30.27 inches Hg (1025.1 mb)
Winds:from the N (10 degrees) at 9 MPH (8 knots; 4.1 m/s)
Visibility:10 or more sm (16+ km)
Ceiling:at least 12,000 feet AGL
Clouds:sky clear below 12,000 feet AGL
QC Flag:automated observation with no human augmentation